Time;durP1;ratioP1;P1;durP2;ratioP2;P2;SDS_P1;SDS_P2;PMS_P1;PMS_P2;Temp;Humidity;BMP_temperature;BMP_pressure;BME280_temperature;BME280_humidity;BME280_pressure;Samples;Min_cycle;Max_cycle;Signal;HPM_P1;HPM_P2
2022/11/03 00:02:22;;;;;;;6.77;2.20;;;;;;;;;;5038323;28;20231;-80
2022/11/03 00:04:51;;;;;;;9.10;2.00;;;;;;;;;;5019744;28;20181;-79
2022/11/03 00:07:21;;;;;;;7.70;2.27;;;;;;;;;;5017708;28;20224;-80
2022/11/03 00:09:49;;;;;;;6.27;2.30;;;;;;;;;;5018154;28;20192;-80
2022/11/03 00:12:18;;;;;;;5.47;2.07;;;;;;;;;;5018170;28;20219;-80
2022/11/03 00:14:48;;;;;;;4.80;1.90;;;;;;;;;;5014817;28;20224;-80
2022/11/03 00:17:16;;;;;;;6.20;1.83;;;;;;;;;;5011755;28;20252;-80
2022/11/03 00:19:45;;;;;;;5.47;1.87;;;;;;;;;;4998676;28;20206;-80
2022/11/03 00:22:13;;;;;;;5.00;2.00;;;;;;;;;;4997393;28;20225;-80
2022/11/03 00:24:42;;;;;;;5.30;2.00;;;;;;;;;;5012890;28;20281;-80
2022/11/03 00:27:10;;;;;;;6.17;1.97;;;;;;;;;;5017550;28;20197;-80
2022/11/03 00:29:39;;;;;;;4.97;2.03;;;;;;;;;;5017486;28;20196;-80
2022/11/03 00:32:09;;;;;;;5.37;1.87;;;;;;;;;;5018568;28;20228;-80
2022/11/03 00:34:37;;;;;;;5.77;2.00;;;;;;;;;;5031859;28;20204;-79
2022/11/03 00:37:05;;;;;;;6.47;1.93;;;;;;;;;;5037961;28;20200;-80
2022/11/03 00:39:34;;;;;;;8.70;2.20;;;;;;;;;;5020448;28;20201;-80
2022/11/03 00:42:02;;;;;;;6.43;1.83;;;;;;;;;;5018643;28;20201;-80
2022/11/03 00:44:31;;;;;;;8.13;1.90;;;;;;;;;;5019090;28;20208;-80
2022/11/03 00:46:59;;;;;;;4.87;2.30;;;;;;;;;;5018053;28;20201;-80
2022/11/03 00:49:29;;;;;;;5.13;2.10;;;;;;;;;;5014554;28;20205;-80
2022/11/03 00:51:58;;;;;;;6.87;1.90;;;;;;;;;;5014900;28;20212;-79
2022/11/03 00:54:26;;;;;;;8.53;2.77;;;;;;;;;;5015360;28;20252;-80
2022/11/03 00:56:55;;;;;;;7.90;2.20;;;;;;;;;;5017435;28;20194;-79
2022/11/03 00:59:23;;;;;;;10.20;2.30;;;;;;;;;;5013792;28;20213;-80
2022/11/03 01:01:52;;;;;;;11.90;2.10;;;;;;;;;;5012593;28;20301;-80
2022/11/03 01:07:08;;;;;;;6.37;2.10;;;;;;;;;;5009401;28;20208;-80
2022/11/03 01:09:37;;;;;;;8.30;2.07;;;;;;;;;;5009717;28;20189;-80
2022/11/03 01:12:06;;;;;;;7.40;2.30;;;;;;;;;;5009343;28;20233;-80
2022/11/03 01:14:36;;;;;;;5.83;2.20;;;;;;;;;;5010498;28;20231;-81
2022/11/03 01:17:05;;;;;;;6.57;2.30;;;;;;;;;;5006539;28;20231;-80
2022/11/03 01:19:34;;;;;;;11.73;1.93;;;;;;;;;;5007336;28;20670;-80
2022/11/03 01:22:02;;;;;;;6.27;2.13;;;;;;;;;;5010398;28;20216;-80
2022/11/03 01:24:38;;;;;;;7.57;2.07;;;;;;;;;;5009471;28;20185;-81
2022/11/03 01:27:07;;;;;;;7.03;2.10;;;;;;;;;;5009526;28;20194;-80
2022/11/03 01:29:35;;;;;;;4.40;1.70;;;;;;;;;;5009151;28;20255;-80
2022/11/03 01:32:04;;;;;;;7.23;2.00;;;;;;;;;;5009318;28;20228;-80
2022/11/03 01:34:33;;;;;;;8.07;2.43;;;;;;;;;;5013911;28;20213;-79
2022/11/03 01:37:01;;;;;;;8.27;2.07;;;;;;;;;;5011656;28;20201;-80
2022/11/03 01:39:30;;;;;;;8.43;2.20;;;;;;;;;;5009926;28;20185;-80
2022/11/03 01:42:00;;;;;;;6.53;2.10;;;;;;;;;;5007886;28;20216;-80
2022/11/03 01:44:32;;;;;;;6.67;2.50;;;;;;;;;;5010117;28;20208;-80
2022/11/03 01:47:03;;;;;;;9.67;2.13;;;;;;;;;;5011226;28;20189;-80
2022/11/03 01:49:34;;;;;;;8.40;2.43;;;;;;;;;;5010164;28;20177;-80
2022/11/03 01:52:05;;;;;;;5.33;2.00;;;;;;;;;;5012675;28;20225;-80
2022/11/03 01:54:35;;;;;;;6.00;1.90;;;;;;;;;;5008064;28;20224;-80
2022/11/03 01:57:07;;;;;;;5.90;2.00;;;;;;;;;;5014676;28;20188;-80
2022/11/03 01:59:36;;;;;;;5.87;2.53;;;;;;;;;;5020007;28;20200;-80
2022/11/03 02:02:05;;;;;;;5.47;1.87;;;;;;;;;;5006021;28;20221;-80
2022/11/03 02:04:35;;;;;;;5.60;1.80;;;;;;;;;;5007621;28;20563;-81
2022/11/03 02:07:10;;;;;;;5.63;1.83;;;;;;;;;;5005191;28;20212;-80
2022/11/03 02:09:39;;;;;;;5.77;2.00;;;;;;;;;;5002256;28;20203;-80
2022/11/03 02:12:10;;;;;;;7.37;2.07;;;;;;;;;;5005022;28;20232;-80
2022/11/03 02:14:41;;;;;;;6.57;2.00;;;;;;;;;;5004411;28;20701;-81
2022/11/03 02:17:11;;;;;;;5.40;1.77;;;;;;;;;;5004523;28;20185;-80
2022/11/03 02:19:41;;;;;;;7.30;2.10;;;;;;;;;;5009562;28;20204;-80
2022/11/03 02:22:21;;;;;;;5.23;1.80;;;;;;;;;;5014440;28;20348;-80
2022/11/03 02:24:51;;;;;;;6.27;1.90;;;;;;;;;;5009796;28;20209;-80
2022/11/03 02:27:23;;;;;;;6.77;2.27;;;;;;;;;;5008727;28;20194;-81
2022/11/03 02:29:51;;;;;;;7.90;2.30;;;;;;;;;;5007332;28;20205;-81
2022/11/03 02:32:22;;;;;;;6.63;2.00;;;;;;;;;;5008937;28;20718;-80
2022/11/03 02:34:55;;;;;;;12.53;2.70;;;;;;;;;;5009893;28;20209;-80
2022/11/03 02:37:25;;;;;;;6.77;2.07;;;;;;;;;;5007854;28;20212;-80
2022/11/03 02:39:57;;;;;;;6.20;2.13;;;;;;;;;;5007946;28;20173;-80
2022/11/03 02:42:27;;;;;;;7.87;1.97;;;;;;;;;;5005910;28;20644;-80
2022/11/03 02:44:58;;;;;;;5.87;2.23;;;;;;;;;;5005924;28;20218;-80
2022/11/03 02:47:29;;;;;;;7.03;2.20;;;;;;;;;;5004508;28;20197;-81
2022/11/03 02:49:57;;;;;;;4.50;2.00;;;;;;;;;;5005741;28;20189;-80
2022/11/03 02:52:36;;;;;;;7.17;2.10;;;;;;;;;;5004602;28;20280;-80
2022/11/03 02:55:08;;;;;;;10.53;2.33;;;;;;;;;;5008599;28;20228;-80
2022/11/03 02:57:40;;;;;;;9.67;2.70;;;;;;;;;;5012033;28;20200;-81
2022/11/03 03:00:09;;;;;;;6.53;2.13;;;;;;;;;;5013650;28;20170;-80
2022/11/03 03:02:40;;;;;;;8.13;2.17;;;;;;;;;;5015181;28;20255;-80
2022/11/03 03:05:11;;;;;;;8.77;2.20;;;;;;;;;;5013784;28;20228;-81
2022/11/03 03:07:42;;;;;;;5.90;2.10;;;;;;;;;;5012886;28;20198;-80
2022/11/03 03:10:12;;;;;;;9.20;1.93;;;;;;;;;;5012583;28;20193;-80
2022/11/03 03:12:44;;;;;;;8.73;2.33;;;;;;;;;;5010674;28;20590;-80
2022/11/03 03:15:12;;;;;;;4.40;2.10;;;;;;;;;;5005610;28;20228;-80
2022/11/03 03:17:45;;;;;;;7.50;2.10;;;;;;;;;;5005420;28;20192;-80
2022/11/03 03:20:18;;;;;;;6.30;2.40;;;;;;;;;;5008943;28;20197;-80
2022/11/03 03:22:48;;;;;;;5.60;2.20;;;;;;;;;;5008796;28;20570;-81
2022/11/03 03:25:19;;;;;;;7.07;2.20;;;;;;;;;;5011626;28;20205;-81
2022/11/03 03:27:50;;;;;;;7.63;2.20;;;;;;;;;;5013975;28;20186;-80
2022/11/03 03:30:19;;;;;;;7.03;2.37;;;;;;;;;;5011768;28;20227;-80
2022/11/03 03:32:49;;;;;;;7.83;2.30;;;;;;;;;;5011988;28;20212;-80
2022/11/03 03:35:20;;;;;;;6.33;2.00;;;;;;;;;;5010541;28;20225;-80
2022/11/03 03:37:51;;;;;;;6.53;1.83;;;;;;;;;;5012626;28;20177;-80
2022/11/03 03:40:22;;;;;;;7.23;2.07;;;;;;;;;;5007984;28;20189;-80
2022/11/03 03:42:52;;;;;;;4.93;2.30;;;;;;;;;;5009836;28;20196;-79
2022/11/03 03:45:21;;;;;;;6.87;2.00;;;;;;;;;;5010854;28;20221;-80
2022/11/03 03:47:50;;;;;;;10.33;2.30;;;;;;;;;;5013669;28;20200;-79
2022/11/03 03:50:26;;;;;;;7.87;2.30;;;;;;;;;;5011677;28;20256;-80
2022/11/03 03:52:55;;;;;;;8.43;2.50;;;;;;;;;;5011829;28;20205;-80
2022/11/03 03:55:27;;;;;;;6.53;2.37;;;;;;;;;;5008619;28;20250;-80
2022/11/03 03:57:57;;;;;;;10.80;2.40;;;;;;;;;;5009627;28;20185;-80
2022/11/03 04:00:27;;;;;;;8.50;2.77;;;;;;;;;;5009064;28;20196;-80
2022/11/03 04:02:57;;;;;;;7.93;2.40;;;;;;;;;;5013955;28;20426;-80
2022/11/03 04:05:26;;;;;;;9.53;2.70;;;;;;;;;;5009894;28;20202;-80
2022/11/03 04:07:55;;;;;;;8.90;2.40;;;;;;;;;;5010209;28;20232;-80
2022/11/03 04:10:24;;;;;;;9.00;2.80;;;;;;;;;;5009086;28;20208;-80
2022/11/03 04:23:59;;;;;;;8.80;3.10;;;;;;;;;;5005866;28;20189;-80
2022/11/03 04:26:28;;;;;;;7.57;2.70;;;;;;;;;;5005269;28;20208;-80
2022/11/03 04:28:58;;;;;;;8.60;2.53;;;;;;;;;;5005288;28;20239;-80
2022/11/03 04:31:36;;;;;;;5.80;2.70;;;;;;;;;;5004098;28;20225;-80
2022/11/03 04:34:11;;;;;;;7.67;2.50;;;;;;;;;;5005832;28;20189;-80
2022/11/03 04:36:39;;;;;;;6.60;2.17;;;;;;;;;;5006043;28;20693;-80
2022/11/03 04:39:16;;;;;;;9.83;2.87;;;;;;;;;;5005145;28;20215;-80
2022/11/03 04:41:45;;;;;;;9.63;2.53;;;;;;;;;;5004082;28;20224;-80
2022/11/03 04:44:15;;;;;;;6.43;2.57;;;;;;;;;;4995360;28;20259;-80
2022/11/03 04:46:46;;;;;;;10.90;2.50;;;;;;;;;;4995607;28;20208;-80
2022/11/03 04:49:20;;;;;;;6.80;2.30;;;;;;;;;;4995757;28;20599;-80
2022/11/03 04:51:49;;;;;;;8.23;2.73;;;;;;;;;;4995269;28;20221;-79
2022/11/03 04:54:19;;;;;;;7.00;2.50;;;;;;;;;;4995150;28;20752;-80
2022/11/03 04:56:48;;;;;;;9.43;2.57;;;;;;;;;;4994988;28;20249;-79
2022/11/03 04:59:17;;;;;;;6.10;2.43;;;;;;;;;;4994954;28;20245;-80
2022/11/03 05:01:47;;;;;;;7.40;2.57;;;;;;;;;;4994935;28;20225;-79
2022/11/03 05:04:17;;;;;;;6.57;2.40;;;;;;;;;;4995324;28;20193;-80
2022/11/03 05:06:48;;;;;;;8.97;2.33;;;;;;;;;;4994867;28;20255;-80
2022/11/03 05:09:19;;;;;;;6.27;2.30;;;;;;;;;;4995221;28;20233;-81
2022/11/03 05:11:48;;;;;;;7.03;2.53;;;;;;;;;;4995101;28;20261;-80
2022/11/03 05:14:18;;;;;;;6.20;2.53;;;;;;;;;;4995314;28;20201;-80
2022/11/03 05:16:49;;;;;;;7.67;2.60;;;;;;;;;;4994952;28;20582;-80
2022/11/03 05:19:20;;;;;;;11.57;2.73;;;;;;;;;;4994905;28;20240;-80
2022/11/03 05:21:49;;;;;;;10.00;2.93;;;;;;;;;;4995008;28;20263;-80
2022/11/03 05:24:19;;;;;;;8.33;2.30;;;;;;;;;;4994832;28;20263;-80
2022/11/03 05:26:49;;;;;;;8.43;2.67;;;;;;;;;;4994829;28;20235;-80
2022/11/03 05:29:19;;;;;;;8.63;2.70;;;;;;;;;;4994711;28;20244;-80
2022/11/03 05:31:50;;;;;;;6.53;2.40;;;;;;;;;;4994595;28;20256;-80
2022/11/03 05:34:28;;;;;;;10.73;3.40;;;;;;;;;;4994701;28;20654;-80
2022/11/03 05:36:59;;;;;;;8.97;3.10;;;;;;;;;;4994535;28;20660;-80
2022/11/03 05:39:30;;;;;;;9.03;2.80;;;;;;;;;;4994428;28;20228;-79
2022/11/03 05:41:58;;;;;;;6.10;2.43;;;;;;;;;;4994570;28;20283;-80
2022/11/03 05:44:35;;;;;;;10.13;2.87;;;;;;;;;;4994683;28;20205;-79
2022/11/03 05:47:09;;;;;;;7.80;2.73;;;;;;;;;;4995889;28;20631;-79
2022/11/03 05:49:38;;;;;;;6.90;2.40;;;;;;;;;;4995914;28;20647;-80
2022/11/03 05:52:14;;;;;;;10.90;2.67;;;;;;;;;;4995688;28;20241;-79
2022/11/03 05:54:42;;;;;;;9.17;2.63;;;;;;;;;;4997716;28;20600;-80
2022/11/03 05:57:12;;;;;;;7.17;2.67;;;;;;;;;;4999350;28;20256;-80
2022/11/03 05:59:40;;;;;;;7.63;2.67;;;;;;;;;;4998175;28;20244;-79
2022/11/03 06:02:20;;;;;;;6.30;2.40;;;;;;;;;;4997926;28;20221;-78
2022/11/03 06:04:49;;;;;;;6.27;2.50;;;;;;;;;;4998547;28;20276;-79
2022/11/03 06:07:24;;;;;;;6.47;2.70;;;;;;;;;;4998594;28;20240;-79
2022/11/03 06:09:53;;;;;;;11.13;3.07;;;;;;;;;;4997650;28;20212;-79
2022/11/03 06:12:23;;;;;;;7.30;2.37;;;;;;;;;;4998227;28;20229;-79
2022/11/03 06:14:52;;;;;;;6.27;2.60;;;;;;;;;;4998683;28;20620;-79
2022/11/03 06:17:23;;;;;;;6.47;2.70;;;;;;;;;;4997916;28;20247;-80
2022/11/03 06:19:53;;;;;;;7.30;2.60;;;;;;;;;;4997863;28;20189;-79
2022/11/03 06:22:23;;;;;;;7.73;2.20;;;;;;;;;;4997281;28;20268;-79
2022/11/03 06:24:52;;;;;;;6.23;2.50;;;;;;;;;;4997650;28;20663;-79
2022/11/03 06:27:22;;;;;;;5.67;2.40;;;;;;;;;;4997338;28;20240;-79
2022/11/03 06:29:53;;;;;;;6.10;2.43;;;;;;;;;;4997071;28;20296;-79
2022/11/03 06:32:23;;;;;;;7.73;2.30;;;;;;;;;;4997868;28;20236;-80
2022/11/03 06:34:53;;;;;;;8.50;2.77;;;;;;;;;;4998088;28;20256;-79
2022/11/03 06:37:23;;;;;;;7.90;2.70;;;;;;;;;;4997995;28;20244;-79
2022/11/03 06:39:52;;;;;;;6.50;2.50;;;;;;;;;;4997746;28;20193;-79
2022/11/03 06:42:22;;;;;;;7.90;2.60;;;;;;;;;;4997791;28;20233;-79
2022/11/03 06:44:56;;;;;;;8.37;2.93;;;;;;;;;;4997743;28;20244;-79
2022/11/03 06:47:27;;;;;;;8.53;2.80;;;;;;;;;;4997564;28;20237;-79
2022/11/03 06:49:57;;;;;;;8.00;2.50;;;;;;;;;;4997935;28;20733;-79
2022/11/03 06:52:31;;;;;;;5.73;2.40;;;;;;;;;;4997402;28;20228;-77
2022/11/03 06:55:13;;;;;;;6.73;2.40;;;;;;;;;;4997197;28;20217;-79
2022/11/03 06:57:46;;;;;;;7.17;2.40;;;;;;;;;;4997561;28;20249;-79
2022/11/03 07:00:17;;;;;;;4.97;3.00;;;;;;;;;;4996724;28;20189;-79
2022/11/03 07:03:08;;;;;;;6.97;2.40;;;;;;;;;;4997410;28;20193;-79
2022/11/03 07:05:38;;;;;;;9.37;2.73;;;;;;;;;;4996296;28;20240;-79
2022/11/03 07:08:14;;;;;;;9.53;2.90;;;;;;;;;;4997339;28;20235;-79
2022/11/03 07:10:42;;;;;;;7.63;2.53;;;;;;;;;;4996926;28;20259;-79
2022/11/03 07:13:13;;;;;;;7.40;2.23;;;;;;;;;;4997184;28;20236;-79
2022/11/03 07:15:42;;;;;;;7.13;2.60;;;;;;;;;;4996987;28;20224;-79
2022/11/03 07:18:19;;;;;;;8.07;2.60;;;;;;;;;;4997261;28;20275;-79
2022/11/03 07:20:48;;;;;;;6.63;2.37;;;;;;;;;;4997282;28;20225;-79
2022/11/03 07:23:20;;;;;;;6.27;2.70;;;;;;;;;;4996945;28;20259;-79
2022/11/03 07:25:52;;;;;;;5.07;2.47;;;;;;;;;;4997309;28;20221;-79
2022/11/03 07:28:21;;;;;;;6.13;2.40;;;;;;;;;;4996878;28;20196;-79
2022/11/03 07:30:49;;;;;;;7.50;2.37;;;;;;;;;;4996781;28;20229;-79
2022/11/03 07:33:21;;;;;;;8.30;2.53;;;;;;;;;;4997055;28;20255;-79
2022/11/03 07:35:50;;;;;;;7.23;2.60;;;;;;;;;;4996977;28;20678;-80
2022/11/03 07:38:39;;;;;;;7.73;2.40;;;;;;;;;;4996048;28;20233;-76
2022/11/03 07:41:12;;;;;;;7.63;2.63;;;;;;;;;;4996515;28;20264;-76
2022/11/03 07:43:41;;;;;;;7.27;2.50;;;;;;;;;;4996080;28;20252;-77
2022/11/03 07:46:14;;;;;;;7.33;2.60;;;;;;;;;;4995939;28;20292;-77
2022/11/03 07:48:46;;;;;;;5.97;2.50;;;;;;;;;;4996258;28;20895;-77
2022/11/03 07:51:17;;;;;;;4.53;2.37;;;;;;;;;;4996515;28;20236;-77
2022/11/03 07:53:46;;;;;;;7.73;2.30;;;;;;;;;;4995556;28;20259;-76
2022/11/03 07:56:18;;;;;;;7.07;2.53;;;;;;;;;;4995960;28;20661;-77
2022/11/03 07:58:48;;;;;;;10.57;2.63;;;;;;;;;;4995902;28;20733;-76
2022/11/03 08:01:22;;;;;;;7.03;2.73;;;;;;;;;;4996386;28;20623;-76
2022/11/03 08:03:52;;;;;;;6.20;2.40;;;;;;;;;;4995911;28;20188;-76
2022/11/03 08:06:21;;;;;;;5.83;2.40;;;;;;;;;;4995958;28;20193;-77
2022/11/03 08:08:49;;;;;;;5.93;2.37;;;;;;;;;;4995945;28;20243;-76
2022/11/03 08:11:18;;;;;;;4.53;2.40;;;;;;;;;;4995682;28;20644;-76
2022/11/03 08:13:52;;;;;;;7.77;2.60;;;;;;;;;;4995693;28;20201;-76
2022/11/03 08:16:20;;;;;;;11.10;2.80;;;;;;;;;;4995392;28;20591;-76
2022/11/03 08:18:49;;;;;;;8.57;3.00;;;;;;;;;;4995399;28;20716;-77
2022/11/03 08:21:19;;;;;;;6.93;2.50;;;;;;;;;;4995555;28;20274;-77
2022/11/03 08:23:47;;;;;;;4.33;2.33;;;;;;;;;;4995453;28;20252;-76
2022/11/03 08:26:16;;;;;;;4.63;2.10;;;;;;;;;;4995526;28;20599;-76
2022/11/03 08:28:45;;;;;;;5.43;2.40;;;;;;;;;;4995063;28;20240;-77
2022/11/03 08:31:13;;;;;;;7.47;2.53;;;;;;;;;;4995166;28;20309;-76
2022/11/03 08:33:42;;;;;;;5.33;2.20;;;;;;;;;;4994892;28;20241;-76
2022/11/03 08:36:10;;;;;;;6.87;2.40;;;;;;;;;;4994744;28;20232;-76
2022/11/03 08:38:40;;;;;;;5.67;2.53;;;;;;;;;;4995180;28;20678;-76
2022/11/03 08:41:09;;;;;;;9.57;2.60;;;;;;;;;;4995092;28;20821;-76
2022/11/03 08:43:37;;;;;;;8.00;2.63;;;;;;;;;;4995408;28;20205;-76
2022/11/03 08:46:06;;;;;;;8.20;2.43;;;;;;;;;;4994235;28;20240;-76
2022/11/03 08:48:44;;;;;;;8.43;2.43;;;;;;;;;;4975444;28;20640;-76
2022/11/03 08:51:13;;;;;;;7.53;2.60;;;;;;;;;;4975674;28;20272;-76
2022/11/03 08:53:44;;;;;;;6.73;2.63;;;;;;;;;;4981084;28;20228;-77
2022/11/03 08:56:12;;;;;;;9.30;2.47;;;;;;;;;;4994842;28;20580;-76
2022/11/03 08:58:43;;;;;;;6.27;2.53;;;;;;;;;;4995111;28;20205;-76
2022/11/03 09:01:12;;;;;;;6.53;2.70;;;;;;;;;;4994603;28;20256;-77
2022/11/03 09:03:41;;;;;;;4.70;2.30;;;;;;;;;;4995053;28;20205;-77
2022/11/03 09:06:10;;;;;;;6.40;2.37;;;;;;;;;;4994894;28;20749;-76
2022/11/03 09:08:38;;;;;;;6.50;2.40;;;;;;;;;;4994701;28;20240;-76
2022/11/03 09:11:28;;;;;;;7.37;2.43;;;;;;;;;;4994751;28;20225;-76
2022/11/03 09:13:57;;;;;;;6.33;2.40;;;;;;;;;;4995130;28;20617;-77
2022/11/03 09:16:25;;;;;;;5.63;2.23;;;;;;;;;;4989704;28;20690;-76
2022/11/03 09:18:54;;;;;;;8.20;2.73;;;;;;;;;;4988333;28;20276;-77
2022/11/03 09:21:22;;;;;;;5.17;2.50;;;;;;;;;;4994260;28;20229;-76
2022/11/03 09:23:51;;;;;;;7.37;2.53;;;;;;;;;;4994457;28;20388;-76
2022/11/03 09:26:20;;;;;;;7.23;2.50;;;;;;;;;;4994509;28;20236;-77
2022/11/03 09:28:50;;;;;;;8.33;2.33;;;;;;;;;;4994108;28;20209;-77
2022/11/03 09:31:18;;;;;;;8.40;2.40;;;;;;;;;;4994383;28;20257;-77
2022/11/03 09:33:47;;;;;;;5.17;2.20;;;;;;;;;;4994200;28;20244;-77
2022/11/03 09:36:15;;;;;;;5.67;2.30;;;;;;;;;;4994265;28;20201;-77
2022/11/03 09:38:44;;;;;;;7.03;2.10;;;;;;;;;;4994606;28;20299;-77
2022/11/03 09:41:16;;;;;;;9.47;2.70;;;;;;;;;;4994350;28;20260;-77
2022/11/03 09:44:03;;;;;;;6.57;2.57;;;;;;;;;;4994733;28;20216;-76
2022/11/03 09:46:34;;;;;;;5.80;2.37;;;;;;;;;;4975685;28;20213;-76
2022/11/03 09:49:03;;;;;;;9.33;2.80;;;;;;;;;;4975118;28;20252;-76
2022/11/03 09:51:32;;;;;;;6.50;2.30;;;;;;;;;;4974896;28;20257;-77
2022/11/03 09:54:03;;;;;;;6.63;2.50;;;;;;;;;;4983097;28;20220;-76
2022/11/03 09:56:32;;;;;;;5.60;2.60;;;;;;;;;;4994116;28;20666;-77
2022/11/03 09:59:00;;;;;;;6.67;2.37;;;;;;;;;;4993933;28;20268;-77
2022/11/03 10:01:31;;;;;;;6.83;2.30;;;;;;;;;;4979577;28;20702;-76
2022/11/03 10:04:01;;;;;;;7.37;2.60;;;;;;;;;;4994333;28;20590;-76
2022/11/03 10:06:30;;;;;;;4.73;2.43;;;;;;;;;;4994223;28;20232;-77
2022/11/03 10:08:58;;;;;;;5.03;2.17;;;;;;;;;;4993713;28;20245;-77
2022/11/03 10:11:26;;;;;;;6.50;2.13;;;;;;;;;;4994309;28;20599;-77
2022/11/03 10:13:57;;;;;;;6.83;2.23;;;;;;;;;;4994253;28;20554;-76
2022/11/03 10:16:27;;;;;;;6.97;2.50;;;;;;;;;;4993621;28;20217;-76
2022/11/03 10:18:56;;;;;;;6.80;2.50;;;;;;;;;;4993910;28;20256;-77
2022/11/03 10:21:27;;;;;;;5.83;2.57;;;;;;;;;;4994131;28;20312;-77
2022/11/03 10:23:55;;;;;;;7.27;2.23;;;;;;;;;;4994207;28;20300;-77
2022/11/03 10:26:24;;;;;;;6.97;2.13;;;;;;;;;;4994554;28;20690;-77
2022/11/03 10:28:59;;;;;;;4.60;2.43;;;;;;;;;;4994315;28;20280;-76
2022/11/03 10:31:35;;;;;;;6.93;2.33;;;;;;;;;;4994220;28;20748;-77
2022/11/03 10:34:06;;;;;;;5.20;2.10;;;;;;;;;;4994070;28;20321;-77
2022/11/03 10:36:35;;;;;;;6.13;2.37;;;;;;;;;;4993754;28;20189;-76
2022/11/03 10:39:25;;;;;;;9.07;2.53;;;;;;;;;;4993901;28;20629;-77
2022/11/03 10:41:57;;;;;;;5.80;2.03;;;;;;;;;;4997055;28;20332;-77
2022/11/03 10:44:27;;;;;;;7.60;2.40;;;;;;;;;;4982756;28;20221;-77
2022/11/03 10:46:59;;;;;;;4.23;1.90;;;;;;;;;;4977885;28;20634;-77
2022/11/03 10:49:30;;;;;;;5.17;2.20;;;;;;;;;;4978065;28;20234;-77
2022/11/03 10:52:02;;;;;;;9.53;2.30;;;;;;;;;;4977716;28;20233;-77
2022/11/03 10:54:31;;;;;;;6.70;2.23;;;;;;;;;;4990291;28;20221;-76
2022/11/03 10:56:59;;;;;;;4.80;2.37;;;;;;;;;;4997488;28;20236;-77
2022/11/03 10:59:31;;;;;;;6.77;2.20;;;;;;;;;;4996420;28;20263;-77
2022/11/03 11:02:00;;;;;;;6.30;2.63;;;;;;;;;;4997925;28;20229;-77
2022/11/03 11:04:33;;;;;;;6.77;2.67;;;;;;;;;;4997207;28;20217;-77
2022/11/03 11:07:01;;;;;;;6.27;2.10;;;;;;;;;;4996930;28;20220;-77
2022/11/03 11:09:30;;;;;;;7.50;2.13;;;;;;;;;;4996763;28;20229;-77
2022/11/03 11:12:03;;;;;;;7.93;2.40;;;;;;;;;;4995245;28;20791;-76
2022/11/03 11:14:38;;;;;;;7.33;2.20;;;;;;;;;;4977745;28;20217;-77
2022/11/03 11:17:27;;;;;;;6.00;2.30;;;;;;;;;;4977141;28;20263;-77
2022/11/03 11:20:17;;;;;;;8.00;2.50;;;;;;;;;;4977007;28;20269;-77
2022/11/03 11:22:46;;;;;;;6.57;2.70;;;;;;;;;;4990997;28;20209;-77
2022/11/03 11:25:15;;;;;;;6.97;2.23;;;;;;;;;;4996886;28;20213;-76
2022/11/03 11:27:47;;;;;;;5.67;2.33;;;;;;;;;;4996333;28;20248;-77
2022/11/03 11:30:33;;;;;;;7.03;2.27;;;;;;;;;;4997056;28;20256;-77
2022/11/03 11:33:13;;;;;;;5.83;2.30;;;;;;;;;;4992795;28;20263;-77
2022/11/03 11:35:59;;;;;;;5.43;2.10;;;;;;;;;;4996554;28;20219;-77
2022/11/03 11:39:00;;;;;;;6.17;2.23;;;;;;;;;;4993108;28;20705;-77
2022/11/03 11:41:47;;;;;;;5.40;2.10;;;;;;;;;;4974528;28;20264;-77
2022/11/03 11:44:34;;;;;;;3.83;2.20;;;;;;;;;;4954971;28;20285;-77
2022/11/03 11:47:04;;;;;;;4.67;1.97;;;;;;;;;;4961852;28;20300;-77
2022/11/03 11:49:32;;;;;;;4.33;2.20;;;;;;;;;;4977295;28;20202;-77
2022/11/03 11:52:02;;;;;;;4.53;2.07;;;;;;;;;;4983458;28;20264;-76
2022/11/03 11:54:30;;;;;;;6.83;2.37;;;;;;;;;;4995799;28;20256;-76
2022/11/03 11:56:59;;;;;;;5.47;2.00;;;;;;;;;;4989985;28;20293;-76
2022/11/03 11:59:27;;;;;;;5.47;2.33;;;;;;;;;;4976599;28;20274;-76
2022/11/03 12:01:57;;;;;;;5.70;2.13;;;;;;;;;;4976974;28;20717;-76
2022/11/03 12:04:29;;;;;;;8.23;2.27;;;;;;;;;;4976403;28;20252;-76
2022/11/03 12:06:59;;;;;;;6.73;2.10;;;;;;;;;;4976347;28;20616;-76
2022/11/03 12:09:28;;;;;;;8.00;2.07;;;;;;;;;;4976725;28;20202;-77
2022/11/03 12:11:57;;;;;;;5.53;2.07;;;;;;;;;;4986586;28;20306;-76
2022/11/03 12:14:35;;;;;;;8.10;2.30;;;;;;;;;;4995923;28;20240;-76
2022/11/03 12:17:22;;;;;;;3.93;1.93;;;;;;;;;;4995845;28;20221;-76
2022/11/03 12:19:52;;;;;;;6.67;1.83;;;;;;;;;;4995405;28;20229;-76
2022/11/03 12:22:40;;;;;;;5.57;2.10;;;;;;;;;;4985811;28;20702;-76
2022/11/03 12:25:23;;;;;;;5.93;1.90;;;;;;;;;;4993604;28;20244;-76
2022/11/03 12:27:52;;;;;;;6.57;2.00;;;;;;;;;;4976468;28;20633;-77
2022/11/03 12:30:20;;;;;;;6.20;1.90;;;;;;;;;;4975962;28;20229;-76
2022/11/03 12:32:50;;;;;;;5.73;2.07;;;;;;;;;;4976131;28;20241;-76
2022/11/03 12:35:20;;;;;;;3.80;1.73;;;;;;;;;;4975690;28;20250;-76
2022/11/03 12:37:48;;;;;;;5.97;2.37;;;;;;;;;;4975818;28;20201;-76
2022/11/03 12:40:17;;;;;;;7.87;2.47;;;;;;;;;;4978143;28;20663;-76
2022/11/03 12:42:45;;;;;;;5.13;2.33;;;;;;;;;;4995415;28;20248;-76
2022/11/03 12:45:14;;;;;;;7.23;2.40;;;;;;;;;;4979487;28;20206;-76
2022/11/03 12:47:43;;;;;;;4.67;1.93;;;;;;;;;;4976111;28;20750;-76
2022/11/03 12:50:11;;;;;;;6.60;2.27;;;;;;;;;;4975757;28;20244;-76
2022/11/03 12:52:41;;;;;;;8.57;2.20;;;;;;;;;;4975352;28;20332;-76
2022/11/03 12:55:11;;;;;;;3.47;1.97;;;;;;;;;;4992212;28;20257;-77
2022/11/03 12:57:39;;;;;;;8.70;2.37;;;;;;;;;;4994522;28;20685;-76
2022/11/03 13:00:08;;;;;;;5.63;2.30;;;;;;;;;;4993889;28;20264;-76
2022/11/03 13:02:37;;;;;;;5.40;1.80;;;;;;;;;;4994201;28;20231;-76
2022/11/03 13:05:06;;;;;;;4.67;2.13;;;;;;;;;;4994291;28;20216;-76
2022/11/03 13:07:35;;;;;;;7.90;2.30;;;;;;;;;;4994482;28;20232;-76
2022/11/03 13:10:05;;;;;;;6.80;2.63;;;;;;;;;;4994455;28;20220;-76
2022/11/03 13:12:35;;;;;;;4.00;2.23;;;;;;;;;;4994279;28;20758;-76
2022/11/03 13:15:05;;;;;;;6.67;2.47;;;;;;;;;;4994382;28;20244;-76
2022/11/03 13:17:33;;;;;;;6.53;2.17;;;;;;;;;;4994349;28;20714;-76
2022/11/03 13:20:22;;;;;;;6.47;2.23;;;;;;;;;;4994143;28;20221;-76
2022/11/03 13:22:51;;;;;;;5.57;2.40;;;;;;;;;;4980414;28;20210;-76
2022/11/03 13:25:23;;;;;;;7.73;2.20;;;;;;;;;;4993641;28;20213;-77
2022/11/03 13:27:53;;;;;;;6.30;2.43;;;;;;;;;;4994190;28;20201;-76
2022/11/03 13:30:22;;;;;;;6.00;2.70;;;;;;;;;;4993773;28;20217;-76
2022/11/03 13:32:50;;;;;;;5.77;2.30;;;;;;;;;;4994687;28;20251;-76
2022/11/03 13:35:19;;;;;;;6.13;2.33;;;;;;;;;;4993980;28;20209;-76
2022/11/03 13:37:47;;;;;;;5.33;2.33;;;;;;;;;;4993673;28;20208;-77
2022/11/03 13:40:16;;;;;;;5.60;2.40;;;;;;;;;;4974476;28;20626;-76
2022/11/03 13:43:06;;;;;;;6.27;2.30;;;;;;;;;;4974428;28;20201;-76
2022/11/03 13:45:35;;;;;;;5.70;2.30;;;;;;;;;;4993008;28;20205;-76
2022/11/03 13:48:04;;;;;;;8.23;2.40;;;;;;;;;;4989286;28;20653;-76
2022/11/03 13:50:52;;;;;;;6.40;2.33;;;;;;;;;;4983011;28;20221;-77
2022/11/03 13:53:21;;;;;;;3.60;2.33;;;;;;;;;;4992072;28;20217;-76
2022/11/03 13:56:09;;;;;;;6.47;2.60;;;;;;;;;;4993602;28;20232;-76
2022/11/03 13:58:49;;;;;;;4.87;2.20;;;;;;;;;;4991915;28;20647;-77
2022/11/03 14:01:38;;;;;;;6.70;2.30;;;;;;;;;;4988942;28;20236;-77
2022/11/03 14:04:08;;;;;;;6.00;2.50;;;;;;;;;;4988442;28;20208;-77
2022/11/03 14:06:57;;;;;;;6.70;2.57;;;;;;;;;;4996290;28;20197;-76
2022/11/03 14:09:26;;;;;;;5.97;2.50;;;;;;;;;;4991085;28;20267;-77
2022/11/03 14:14:44;;;;;;;5.67;2.10;;;;;;;;;;4991684;28;20228;-77
2022/11/03 14:17:12;;;;;;;8.77;2.90;;;;;;;;;;4997006;28;20216;-77
2022/11/03 14:19:41;;;;;;;6.00;2.20;;;;;;;;;;4998018;28;20293;-77
2022/11/03 14:22:17;;;;;;;5.27;2.20;;;;;;;;;;4997688;28;20749;-77
2022/11/03 14:24:46;;;;;;;3.20;2.00;;;;;;;;;;4986040;28;20209;-76
2022/11/03 14:27:17;;;;;;;4.77;2.37;;;;;;;;;;4992158;28;20205;-76
2022/11/03 14:29:48;;;;;;;3.43;1.90;;;;;;;;;;4998110;28;20233;-77
2022/11/03 14:32:17;;;;;;;7.73;2.20;;;;;;;;;;4995319;28;20222;-77
2022/11/03 14:34:46;;;;;;;4.93;2.10;;;;;;;;;;4996643;28;20220;-76
2022/11/03 14:37:15;;;;;;;9.27;2.53;;;;;;;;;;4997044;28;20680;-77
2022/11/03 14:39:44;;;;;;;5.23;2.27;;;;;;;;;;4996955;28;20202;-76
2022/11/03 14:42:14;;;;;;;7.07;2.30;;;;;;;;;;4996640;28;20253;-77
2022/11/03 14:44:43;;;;;;;3.00;1.90;;;;;;;;;;4997122;28;20201;-77
2022/11/03 14:47:14;;;;;;;6.33;2.20;;;;;;;;;;5002101;28;20665;-76
2022/11/03 14:49:42;;;;;;;4.70;2.80;;;;;;;;;;4990821;28;20221;-76
2022/11/03 14:52:11;;;;;;;4.47;2.33;;;;;;;;;;4994801;28;20221;-76
2022/11/03 14:54:40;;;;;;;4.17;2.03;;;;;;;;;;4991066;28;20644;-77
2022/11/03 14:57:09;;;;;;;5.37;2.07;;;;;;;;;;4996568;28;20244;-76
2022/11/03 14:59:37;;;;;;;5.77;2.20;;;;;;;;;;4994973;28;20249;-76
2022/11/03 15:02:06;;;;;;;4.47;2.10;;;;;;;;;;4994950;28;20283;-76
2022/11/03 15:04:36;;;;;;;5.63;2.20;;;;;;;;;;4995844;28;20227;-76
2022/11/03 15:07:05;;;;;;;4.27;2.03;;;;;;;;;;4993061;28;20613;-76
2022/11/03 15:09:33;;;;;;;5.80;2.13;;;;;;;;;;4983033;28;20252;-76
2022/11/03 15:12:02;;;;;;;3.87;2.23;;;;;;;;;;4996501;28;20726;-76
2022/11/03 15:14:30;;;;;;;6.13;2.27;;;;;;;;;;4976960;28;20244;-76
2022/11/03 15:16:59;;;;;;;3.93;2.00;;;;;;;;;;4990983;28;20205;-76
2022/11/03 15:19:27;;;;;;;5.50;2.40;;;;;;;;;;4985899;28;20729;-76
2022/11/03 15:21:57;;;;;;;3.70;2.30;;;;;;;;;;4981246;28;20224;-76
2022/11/03 15:24:28;;;;;;;5.40;2.47;;;;;;;;;;4996111;28;20237;-76